createdAt,value
2023-03-27T00:00:25.893Z,93251.00
2023-03-27T00:04:26.074Z,93247.00
2023-03-27T00:08:26.272Z,93247.00
2023-03-27T00:12:26.501Z,93247.00
2023-03-27T00:16:26.957Z,93249.00
2023-03-27T00:20:26.887Z,93252.00
2023-03-27T00:24:27.088Z,93252.00
2023-03-27T00:28:27.338Z,93256.00
2023-03-27T00:32:27.668Z,93256.00
2023-03-27T00:36:27.739Z,93254.00
2023-03-27T00:40:27.949Z,93251.00
2023-03-27T00:44:28.145Z,93247.00
2023-03-27T00:48:28.355Z,93252.00
2023-03-27T00:52:28.331Z,93254.00
2023-03-27T00:56:28.282Z,93258.00
2023-03-27T01:00:28.265Z,93258.00
2023-03-27T01:04:28.213Z,93260.00
2023-03-27T01:08:28.192Z,93252.00
2023-03-27T01:12:28.139Z,93247.00
2023-03-27T01:16:28.087Z,93241.00
2023-03-27T01:20:28.050Z,93252.00
2023-03-27T01:24:28.023Z,93266.00
2023-03-27T01:28:28.013Z,93274.00
2023-03-27T01:32:28.079Z,93270.00
2023-03-27T01:36:28.292Z,93272.00
2023-03-27T01:40:28.281Z,93276.00
2023-03-27T01:44:43.057Z,93284.00
2023-03-27T01:48:29.204Z,93278.00
2023-03-27T01:52:28.134Z,93282.00
2023-03-27T01:56:28.329Z,93286.00
2023-03-27T02:00:51.914Z,93294.00
2023-03-27T02:04:29.549Z,93284.00
2023-03-27T02:08:28.515Z,93282.00
2023-03-27T02:12:28.716Z,93276.00
2023-03-27T02:16:28.809Z,93272.00
2023-03-27T02:20:28.660Z,93272.00
2023-03-27T02:24:28.619Z,93274.00
2023-03-27T02:28:28.577Z,93274.00
2023-03-27T02:32:28.657Z,93276.00
2023-03-27T02:36:28.500Z,93280.00
2023-03-27T02:40:28.469Z,93284.00
2023-03-27T02:44:28.447Z,93288.00
2023-03-27T02:48:28.409Z,93296.00
2023-03-27T02:52:28.512Z,93307.00
2023-03-27T02:56:28.473Z,93305.00
2023-03-27T03:00:28.501Z,93305.00
2023-03-27T03:04:28.478Z,93307.00
2023-03-27T03:08:28.375Z,93313.00
2023-03-27T03:12:28.330Z,93317.00
2023-03-27T03:16:28.349Z,93313.00
2023-03-27T03:20:28.254Z,93321.00
2023-03-27T03:24:28.210Z,93319.00
2023-03-27T03:28:28.276Z,93321.00
2023-03-27T03:32:28.285Z,93327.00
2023-03-27T03:36:28.244Z,93321.00
2023-03-27T03:40:28.188Z,93329.00
2023-03-27T03:44:28.153Z,93331.00
2023-03-27T03:48:28.117Z,93339.00
2023-03-27T03:52:28.090Z,93341.00
2023-03-27T03:56:28.044Z,93346.00
2023-03-27T04:00:28.031Z,93364.00
2023-03-27T04:04:27.959Z,93368.00
2023-03-27T04:08:27.930Z,93372.00
2023-03-27T04:12:28.073Z,93374.00
2023-03-27T04:16:28.064Z,93380.00
2023-03-27T04:20:27.994Z,93376.00
2023-03-27T04:24:27.943Z,93378.00
2023-03-27T04:28:27.919Z,93382.00
2023-03-27T04:32:27.910Z,93380.00
2023-03-27T04:36:29.480Z,93385.00
2023-03-27T04:40:27.819Z,93395.00
2023-03-27T04:44:27.766Z,93397.00
2023-03-27T04:48:27.739Z,93407.00
2023-03-27T04:52:27.700Z,93419.00
2023-03-27T04:56:27.772Z,93415.00
2023-03-27T05:00:27.628Z,93429.00
2023-03-27T05:04:27.596Z,93433.00
2023-03-27T05:08:27.537Z,93444.00
2023-03-27T05:12:27.511Z,93450.00
2023-03-27T05:16:27.624Z,93452.00
2023-03-27T05:20:27.546Z,93462.00
2023-03-27T05:24:27.531Z,93466.00
2023-03-27T05:28:27.545Z,93480.00
2023-03-27T05:32:27.467Z,93491.00
2023-03-27T05:36:27.402Z,93493.00
2023-03-27T05:40:27.385Z,93509.00
2023-03-27T05:44:27.322Z,93515.00
2023-03-27T05:48:27.318Z,93527.00
2023-03-27T05:52:28.587Z,93536.00
2023-03-27T05:56:27.287Z,93548.00
2023-03-27T06:00:27.169Z,93566.00
2023-03-27T06:04:27.301Z,93574.00
2023-03-27T06:08:27.310Z,93585.00
2023-03-27T06:12:27.283Z,93609.00
2023-03-27T06:16:27.425Z,93626.00
2023-03-27T06:20:27.831Z,93640.00
2023-03-27T06:24:27.469Z,93654.00
2023-03-27T06:28:27.826Z,93660.00
2023-03-27T06:32:27.878Z,93673.00
2023-03-27T06:36:27.970Z,93687.00
2023-03-27T06:40:27.500Z,93689.00
2023-03-27T06:44:27.459Z,93705.00
2023-03-27T06:48:27.445Z,93721.00
2023-03-27T06:52:27.388Z,93721.00
2023-03-27T06:56:27.356Z,93734.00
2023-03-27T07:00:27.343Z,93764.00
2023-03-27T07:04:27.268Z,93775.00
2023-03-27T07:08:27.385Z,93785.00
2023-03-27T07:12:27.192Z,93799.00
2023-03-27T07:16:27.315Z,93803.00
2023-03-27T07:20:27.364Z,93817.00
2023-03-27T07:24:27.873Z,93822.00
2023-03-27T07:28:27.570Z,93826.00
2023-03-27T09:27:18.667Z,94071.00
2023-03-27T09:31:19.237Z,94083.00
2023-03-27T09:35:19.050Z,94097.00
2023-03-27T09:39:19.193Z,94097.00
2023-03-27T09:43:19.194Z,94093.00
2023-03-27T09:47:19.698Z,94091.00
2023-03-27T09:51:19.425Z,94103.00
2023-03-27T09:55:19.516Z,94101.00
2023-03-27T09:59:19.557Z,94110.00
2023-03-27T10:03:19.621Z,94122.00
2023-03-27T10:07:19.523Z,94140.00
2023-03-27T10:11:19.536Z,94146.00
2023-03-27T10:15:19.631Z,94155.00
2023-03-27T10:19:19.724Z,94159.00
2023-03-27T10:23:20.249Z,94159.00
2023-03-27T10:27:20.092Z,94163.00
2023-03-27T10:31:28.372Z,94157.00
2023-03-27T10:35:20.204Z,94161.00
2023-03-27T10:39:20.198Z,94171.00
2023-03-27T10:43:20.276Z,94185.00
2023-03-27T10:47:20.257Z,94169.00
2023-03-27T10:51:20.213Z,94175.00
2023-03-27T10:55:20.244Z,94175.00
2023-03-27T10:59:30.959Z,94193.00
2023-03-27T11:03:21.572Z,94207.00
2023-03-27T11:07:20.527Z,94214.00
2023-03-27T11:11:20.544Z,94218.00
2023-03-27T11:15:20.595Z,94226.00
2023-03-27T11:19:20.816Z,94236.00
2023-03-27T11:23:21.368Z,94238.00
2023-03-27T11:27:20.953Z,94232.00
2023-03-27T11:31:21.082Z,94238.00
2023-03-27T11:35:21.120Z,94246.00
2023-03-27T11:39:21.592Z,94234.00
2023-03-27T11:43:22.470Z,94234.00
2023-03-27T11:47:21.537Z,94234.00
2023-03-27T11:51:21.899Z,94228.00
2023-03-27T11:55:21.891Z,94238.00
2023-03-27T11:59:21.849Z,94238.00
2023-03-27T12:03:22.112Z,94242.00
2023-03-27T12:07:33.825Z,94242.00
2023-03-27T12:11:23.391Z,94242.00
2023-03-27T12:15:21.862Z,94244.00
2023-03-27T12:23:22.821Z,94252.00
2023-03-27T12:27:21.788Z,94269.00
2023-03-27T12:31:21.762Z,94263.00
2023-03-27T12:35:22.405Z,94261.00
2023-03-27T12:39:21.582Z,94271.00
2023-03-27T12:43:21.607Z,94271.00
2023-03-27T12:47:21.545Z,94267.00
2023-03-27T12:51:21.500Z,94267.00
2023-03-27T12:55:21.534Z,94277.00
2023-03-27T12:59:21.550Z,94285.00
2023-03-27T13:03:21.522Z,94302.00
2023-03-27T13:07:21.851Z,94320.00
2023-03-27T13:11:21.995Z,94322.00
2023-03-27T13:15:21.588Z,94332.00
2023-03-27T13:19:21.711Z,94330.00
2023-03-27T13:23:21.594Z,94348.00
2023-03-27T13:27:21.560Z,94346.00
2023-03-27T13:31:21.744Z,94338.00
2023-03-27T13:35:21.631Z,94348.00
2023-03-27T13:39:21.631Z,94346.00
2023-03-27T13:43:21.731Z,94351.00
2023-03-27T13:47:21.714Z,94375.00
2023-03-27T13:51:21.756Z,94379.00
2023-03-27T13:55:21.779Z,94387.00
2023-03-27T13:59:21.950Z,94391.00
2023-03-27T14:03:21.974Z,94393.00
2023-03-27T14:07:21.923Z,94396.00
2023-03-27T14:11:21.994Z,94408.00
2023-03-27T14:15:22.025Z,94422.00
2023-03-27T14:19:22.091Z,94438.00
2023-03-27T14:23:23.485Z,94440.00
2023-03-27T14:27:22.059Z,94447.00
2023-03-27T14:31:22.128Z,94449.00
2023-03-27T14:35:22.040Z,94457.00
2023-03-27T14:39:21.999Z,94459.00
2023-03-27T14:43:21.944Z,94471.00
2023-03-27T14:47:21.959Z,94479.00
2023-03-27T14:51:21.884Z,94475.00
2023-03-27T14:55:21.818Z,94477.00
2023-03-27T14:59:21.817Z,94493.00
2023-03-27T15:03:21.867Z,94496.00
2023-03-27T15:07:21.775Z,94500.00
2023-03-27T15:11:21.695Z,94508.00
2023-03-27T15:15:21.643Z,94514.00
2023-03-27T15:19:21.677Z,94526.00
2023-03-27T15:23:21.598Z,94532.00
2023-03-27T15:27:21.613Z,94536.00
2023-03-27T15:31:21.584Z,94528.00
2023-03-27T15:35:21.461Z,94532.00
2023-03-27T15:39:21.414Z,94543.00
2023-03-27T15:42:47.364Z,94547.00
2023-03-27T15:43:47.362Z,94551.00
2023-03-27T15:44:47.318Z,94557.00
2023-03-27T15:45:47.292Z,94553.00
2023-03-27T15:46:47.338Z,94555.00
2023-03-27T15:47:47.314Z,94551.00
2023-03-27T15:48:47.273Z,94553.00
2023-03-27T15:49:47.283Z,94553.00
2023-03-27T15:50:47.280Z,94551.00
2023-03-27T15:51:47.258Z,94557.00
2023-03-27T15:52:47.247Z,94553.00
2023-03-27T15:53:47.257Z,94555.00
2023-03-27T15:54:47.253Z,94555.00
2023-03-27T15:55:47.236Z,94559.00
2023-03-27T15:56:47.284Z,94561.00
2023-03-27T15:57:47.215Z,94557.00
2023-03-27T15:58:47.275Z,94559.00
2023-03-27T15:59:52.066Z,94567.00
2023-03-27T16:00:48.204Z,94565.00
2023-03-27T16:01:47.247Z,94571.00
2023-03-27T16:02:47.242Z,94575.00
2023-03-27T16:03:47.331Z,94571.00
2023-03-27T16:04:47.164Z,94575.00
2023-03-27T16:05:47.160Z,94585.00
2023-03-27T16:06:47.186Z,94583.00
2023-03-27T16:07:47.240Z,94587.00
2023-03-27T16:08:47.294Z,94585.00
2023-03-27T16:09:47.362Z,94590.00
2023-03-27T16:10:47.417Z,94590.00
2023-03-27T16:11:47.455Z,94596.00
2023-03-27T16:12:47.530Z,94594.00
2023-03-27T16:13:47.558Z,94596.00
2023-03-27T16:14:47.611Z,94602.00
2023-03-27T16:15:47.689Z,94604.00
2023-03-27T16:16:47.714Z,94604.00
2023-03-27T16:17:47.771Z,94608.00
2023-03-27T16:18:47.786Z,94614.00
2023-03-27T16:19:47.784Z,94614.00
2023-03-27T16:20:47.838Z,94620.00
2023-03-27T16:21:47.969Z,94622.00
2023-03-27T16:22:47.913Z,94622.00
2023-03-27T16:23:47.928Z,94624.00
2023-03-27T16:24:47.945Z,94628.00
2023-03-27T16:25:47.959Z,94630.00
2023-03-27T16:26:47.967Z,94632.00
2023-03-27T16:27:47.981Z,94634.00
2023-03-27T16:28:47.997Z,94636.00
2023-03-27T16:29:47.992Z,94636.00
2023-03-27T16:30:47.997Z,94634.00
2023-03-27T16:31:48.108Z,94643.00
2023-03-27T16:32:48.123Z,94643.00
2023-03-27T16:33:48.059Z,94647.00
2023-03-27T16:34:48.090Z,94645.00
2023-03-27T16:35:48.141Z,94647.00
2023-03-27T16:36:48.069Z,94653.00
2023-03-27T16:37:48.088Z,94661.00
2023-03-27T16:38:48.087Z,94659.00
2023-03-27T16:39:48.071Z,94669.00
2023-03-27T16:40:48.075Z,94669.00
2023-03-27T16:41:48.078Z,94673.00
2023-03-27T16:42:48.073Z,94667.00
2023-03-27T16:43:48.146Z,94661.00
2023-03-27T16:44:48.040Z,94667.00
2023-03-27T16:45:48.099Z,94663.00
2023-03-27T16:46:48.050Z,94665.00
2023-03-27T16:47:49.086Z,94663.00
2023-03-27T16:48:48.045Z,94667.00
2023-03-27T16:50:48.002Z,94665.00
2023-03-27T16:51:48.009Z,94669.00
2023-03-27T16:52:48.018Z,94669.00
2023-03-27T16:53:47.993Z,94673.00
2023-03-27T16:54:47.986Z,94675.00
2023-03-27T16:55:47.965Z,94673.00
2023-03-27T16:56:47.996Z,94677.00
2023-03-27T16:57:47.976Z,94677.00
2023-03-27T16:58:47.969Z,94679.00
2023-03-27T16:59:47.939Z,94679.00
2023-03-27T17:00:47.979Z,94683.00
2023-03-27T17:01:47.944Z,94683.00
2023-03-27T17:02:48.052Z,94687.00
2023-03-27T17:03:47.928Z,94687.00
2023-03-27T17:04:47.941Z,94689.00
2023-03-27T17:05:47.915Z,94692.00
2023-03-27T17:06:47.993Z,94689.00
2023-03-27T17:07:47.900Z,94687.00
2023-03-27T17:08:47.898Z,94687.00
2023-03-27T17:09:47.893Z,94685.00
2023-03-27T17:10:47.881Z,94685.00
2023-03-27T17:11:47.862Z,94683.00
2023-03-27T17:12:47.880Z,94683.00
2023-03-27T17:13:47.880Z,94689.00
2023-03-27T17:14:47.855Z,94689.00
2023-03-27T17:15:47.853Z,94689.00
2023-03-27T17:16:47.921Z,94690.00
2023-03-27T17:17:47.865Z,94696.00
2023-03-27T17:18:47.826Z,94692.00
2023-03-27T17:19:47.813Z,94690.00
2023-03-27T17:20:47.821Z,94690.00
2023-03-27T17:21:47.847Z,94692.00
2023-03-27T17:22:47.808Z,94698.00
2023-03-27T17:23:47.785Z,94702.00
2023-03-27T17:24:56.262Z,94704.00
2023-03-27T17:25:48.773Z,94704.00
2023-03-27T17:26:47.761Z,94708.00
2023-03-27T17:27:47.756Z,94712.00
2023-03-27T17:28:47.860Z,94712.00
2023-03-27T17:29:47.752Z,94712.00
2023-03-27T17:31:01.098Z,94714.00
2023-03-27T17:31:48.758Z,94714.00
2023-03-27T17:32:47.765Z,94718.00
2023-03-27T17:33:47.748Z,94718.00
2023-03-27T17:34:47.705Z,94718.00
2023-03-27T17:35:47.773Z,94726.00
2023-03-27T17:36:54.178Z,94728.00
2023-03-27T17:37:48.687Z,94726.00
2023-03-27T17:38:47.694Z,94720.00
2023-03-27T17:39:47.694Z,94718.00
2023-03-27T17:40:47.679Z,94722.00
2023-03-27T17:41:47.654Z,94726.00
2023-03-27T17:42:47.668Z,94726.00
2023-03-27T17:43:47.650Z,94726.00
2023-03-27T17:44:47.651Z,94734.00
2023-03-27T17:45:47.649Z,94726.00
2023-03-27T17:46:47.672Z,94732.00
2023-03-27T17:47:47.694Z,94726.00
2023-03-27T17:48:47.626Z,94728.00
2023-03-27T17:49:47.706Z,94728.00
2023-03-27T17:50:51.880Z,94728.00
2023-03-27T17:51:48.593Z,94730.00
2023-03-27T17:52:47.607Z,94724.00
2023-03-27T17:53:47.585Z,94722.00
2023-03-27T17:54:47.566Z,94724.00
2023-03-27T17:55:47.590Z,94724.00
2023-03-27T17:56:47.595Z,94722.00
2023-03-27T17:57:55.713Z,94722.00
2023-03-27T17:58:48.567Z,94726.00
2023-03-27T17:59:47.542Z,94730.00
2023-03-27T18:00:47.571Z,94728.00
2023-03-27T18:01:47.547Z,94730.00
2023-03-27T18:02:47.657Z,94732.00
2023-03-27T18:03:47.608Z,94734.00
2023-03-27T18:04:47.517Z,94734.00
2023-03-27T18:05:47.506Z,94736.00
2023-03-27T18:06:47.505Z,94736.00
2023-03-27T18:07:47.498Z,94739.00
2023-03-27T18:08:47.490Z,94745.00
2023-03-27T18:09:47.492Z,94739.00
2023-03-27T18:10:47.535Z,94739.00
2023-03-27T18:11:47.484Z,94737.00
2023-03-27T18:12:47.551Z,94741.00
2023-03-27T18:13:47.444Z,94739.00
2023-03-27T18:14:47.440Z,94737.00
2023-03-27T18:15:47.453Z,94737.00
2023-03-27T18:16:47.477Z,94741.00
2023-03-27T18:17:47.484Z,94739.00
2023-03-27T18:18:47.441Z,94745.00
2023-03-27T18:19:47.427Z,94745.00
2023-03-27T18:20:47.394Z,94743.00
2023-03-27T18:21:47.426Z,94745.00
2023-03-27T18:22:47.397Z,94745.00
2023-03-27T18:23:47.374Z,94747.00
2023-03-27T18:24:47.386Z,94747.00
2023-03-27T18:25:47.414Z,94749.00
2023-03-27T18:26:47.363Z,94753.00
2023-03-27T18:27:47.377Z,94753.00
2023-03-27T18:28:47.351Z,94755.00
2023-03-27T18:29:47.345Z,94755.00
2023-03-27T18:30:47.324Z,94753.00
2023-03-27T18:31:47.340Z,94757.00
2023-03-27T18:32:47.359Z,94755.00
2023-03-27T18:33:47.305Z,94753.00
2023-03-27T18:34:47.382Z,94757.00
2023-03-27T18:35:47.331Z,94759.00
2023-03-27T18:36:47.294Z,94757.00
2023-03-27T18:37:47.323Z,94753.00
2023-03-27T18:38:49.543Z,94757.00
2023-03-27T18:39:47.380Z,94757.00
2023-03-27T18:40:47.418Z,94759.00
2023-03-27T18:41:47.433Z,94761.00
2023-03-27T18:42:47.521Z,94759.00
2023-03-27T18:43:47.467Z,94763.00
2023-03-27T18:44:47.462Z,94763.00
2023-03-27T18:45:47.515Z,94761.00
2023-03-27T18:46:47.541Z,94763.00
2023-03-27T18:47:47.608Z,94767.00
2023-03-27T18:48:47.564Z,94769.00
2023-03-27T18:49:47.612Z,94769.00
2023-03-27T18:50:47.607Z,94771.00
2023-03-27T18:51:47.650Z,94775.00
2023-03-27T18:52:47.673Z,94779.00
2023-03-27T18:53:47.684Z,94783.00
2023-03-27T18:54:47.697Z,94783.00
2023-03-27T18:55:47.721Z,94784.00
2023-03-27T18:56:47.872Z,94784.00
2023-03-27T18:57:47.787Z,94788.00
2023-03-27T18:58:47.799Z,94788.00
2023-03-27T18:59:47.824Z,94788.00
2023-03-27T19:00:47.914Z,94788.00
2023-03-27T19:01:47.891Z,94790.00
2023-03-27T19:02:48.226Z,94792.00
2023-03-27T19:03:48.787Z,94792.00
2023-03-27T19:04:48.139Z,94794.00
2023-03-27T19:05:48.159Z,94796.00
2023-03-27T19:06:48.193Z,94798.00
2023-03-27T19:07:48.227Z,94800.00
2023-03-27T19:08:48.274Z,94806.00
2023-03-27T19:09:48.269Z,94804.00
2023-03-27T19:10:48.320Z,94800.00
2023-03-27T19:11:48.337Z,94802.00
2023-03-27T19:12:48.355Z,94798.00
2023-03-27T19:13:48.399Z,94800.00
2023-03-27T19:14:48.384Z,94796.00
2023-03-27T19:15:48.432Z,94798.00
2023-03-27T19:16:48.464Z,94800.00
2023-03-27T19:17:48.514Z,94800.00
2023-03-27T19:18:48.574Z,94800.00
2023-03-27T19:19:48.529Z,94802.00
2023-03-27T19:20:48.529Z,94800.00
2023-03-27T19:21:48.565Z,94802.00
2023-03-27T19:22:48.574Z,94808.00
2023-03-27T19:23:48.607Z,94808.00
2023-03-27T19:24:48.641Z,94808.00
2023-03-27T19:25:48.659Z,94802.00
2023-03-27T19:26:48.687Z,94806.00
2023-03-27T19:27:48.730Z,94808.00
2023-03-27T19:28:48.760Z,94808.00
2023-03-27T19:29:48.792Z,94810.00
2023-03-27T19:30:48.871Z,94808.00
2023-03-27T19:31:48.828Z,94810.00
2023-03-27T19:32:48.910Z,94810.00
2023-03-27T19:33:48.907Z,94814.00
2023-03-27T19:34:48.988Z,94816.00
2023-03-27T19:35:48.957Z,94820.00
2023-03-27T19:36:51.038Z,94822.00
2023-03-27T19:37:48.971Z,94820.00
2023-03-27T19:38:48.966Z,94826.00
2023-03-27T19:39:48.978Z,94822.00
2023-03-27T19:40:49.044Z,94826.00
2023-03-27T19:41:48.946Z,94828.00
2023-03-27T19:42:48.941Z,94828.00
2023-03-27T19:43:48.927Z,94830.00
2023-03-27T19:44:48.938Z,94833.00
2023-03-27T19:45:48.965Z,94828.00
2023-03-27T19:46:48.946Z,94828.00
2023-03-27T19:47:48.918Z,94826.00
2023-03-27T19:48:48.924Z,94826.00
2023-03-27T19:49:48.895Z,94828.00
2023-03-27T19:50:48.873Z,94826.00
2023-03-27T19:51:48.892Z,94826.00
2023-03-27T19:53:05.495Z,94826.00
2023-03-27T19:53:49.889Z,94824.00
2023-03-27T19:54:48.857Z,94828.00
2023-03-27T19:55:48.859Z,94828.00
2023-03-27T19:56:48.878Z,94828.00
2023-03-27T19:57:48.849Z,94828.00
2023-03-27T19:58:48.841Z,94828.00
2023-03-27T19:59:48.818Z,94830.00
2023-03-27T20:00:48.829Z,94833.00
2023-03-27T20:01:48.866Z,94837.00
2023-03-27T20:02:48.875Z,94835.00
2023-03-27T20:03:48.998Z,94839.00
2023-03-27T20:04:48.796Z,94841.00
2023-03-27T20:05:48.771Z,94841.00
2023-03-27T20:06:48.805Z,94843.00
2023-03-27T20:07:48.818Z,94841.00
2023-03-27T20:08:48.870Z,94843.00
2023-03-27T20:09:48.899Z,94845.00
2023-03-27T20:10:48.925Z,94845.00
2023-03-27T20:11:48.953Z,94847.00
2023-03-27T20:12:49.009Z,94845.00
2023-03-27T20:13:56.181Z,94845.00
2023-03-27T20:15:02.259Z,94847.00
2023-03-27T20:15:50.034Z,94847.00
2023-03-27T20:16:48.996Z,94845.00
2023-03-27T20:17:49.003Z,94845.00
2023-03-27T20:18:48.992Z,94847.00
2023-03-27T20:19:48.971Z,94845.00
2023-03-27T20:20:48.959Z,94847.00
2023-03-27T20:21:48.982Z,94847.00
2023-03-27T20:23:48.948Z,94853.00
2023-03-27T20:24:48.955Z,94853.00
2023-03-27T20:25:49.045Z,94853.00
2023-03-27T20:26:48.916Z,94851.00
2023-03-27T20:27:48.925Z,94849.00
2023-03-27T20:28:48.917Z,94849.00
2023-03-27T20:29:48.892Z,94853.00
2023-03-27T20:30:48.910Z,94851.00
2023-03-27T20:31:49.012Z,94847.00
2023-03-27T20:32:48.914Z,94847.00
2023-03-27T20:33:48.896Z,94851.00
2023-03-27T20:34:48.874Z,94849.00
2023-03-27T20:35:48.916Z,94849.00
2023-03-27T20:36:48.865Z,94849.00
2023-03-27T20:37:48.858Z,94851.00
2023-03-27T20:38:48.849Z,94849.00
2023-03-27T20:39:48.827Z,94849.00
2023-03-27T20:41:48.831Z,94855.00
2023-03-27T20:42:48.809Z,94855.00
2023-03-27T20:43:48.841Z,94855.00
2023-03-27T20:44:48.796Z,94857.00
2023-03-27T20:45:48.785Z,94853.00
2023-03-27T20:46:48.820Z,94851.00
2023-03-27T20:47:48.937Z,94855.00
2023-03-27T20:48:53.991Z,94849.00
2023-03-27T20:49:49.767Z,94851.00
2023-03-27T20:50:48.762Z,94851.00
2023-03-27T20:51:48.751Z,94851.00
2023-03-27T20:52:48.749Z,94851.00
2023-03-27T20:53:48.743Z,94849.00
2023-03-27T20:54:48.722Z,94849.00
2023-03-27T20:56:03.047Z,94849.00
2023-03-27T20:56:49.758Z,94849.00
2023-03-27T20:57:48.713Z,94851.00
2023-03-27T20:58:48.735Z,94851.00
2023-03-27T20:59:48.711Z,94853.00
2023-03-27T21:00:48.778Z,94853.00
2023-03-27T21:01:48.704Z,94847.00
2023-03-27T21:02:48.752Z,94847.00
2023-03-27T21:03:48.660Z,94843.00
2023-03-27T21:04:48.681Z,94843.00
2023-03-27T21:05:48.660Z,94839.00
2023-03-27T21:06:48.659Z,94839.00
2023-03-27T21:07:48.681Z,94837.00
2023-03-27T21:08:48.698Z,94837.00
2023-03-27T21:09:48.849Z,94835.00
2023-03-27T21:10:48.791Z,94831.00
2023-03-27T21:11:48.811Z,94828.00
2023-03-27T21:12:48.861Z,94826.00
2023-03-27T21:13:48.894Z,94828.00
2023-03-27T21:14:48.943Z,94828.00
2023-03-27T21:15:48.975Z,94822.00
2023-03-27T21:16:49.061Z,94826.00
2023-03-27T21:17:49.094Z,94828.00
2023-03-27T21:18:49.117Z,94822.00
2023-03-27T21:19:49.144Z,94820.00
2023-03-27T21:20:49.197Z,94826.00
2023-03-27T21:21:49.232Z,94824.00
2023-03-27T21:22:49.269Z,94824.00
2023-03-27T21:23:49.324Z,94824.00
2023-03-27T21:24:49.359Z,94826.00
2023-03-27T21:25:49.400Z,94828.00
2023-03-27T21:26:49.470Z,94830.00
2023-03-27T21:27:49.485Z,94830.00
2023-03-27T21:28:49.536Z,94826.00
2023-03-27T21:29:49.560Z,94828.00
2023-03-27T21:30:49.625Z,94824.00
2023-03-27T21:31:49.690Z,94824.00
2023-03-27T21:32:49.787Z,94824.00
2023-03-27T21:33:49.762Z,94822.00
2023-03-27T21:34:49.795Z,94824.00
2023-03-27T21:35:49.873Z,94826.00
2023-03-27T21:36:49.994Z,94831.00
2023-03-27T21:37:49.943Z,94833.00
2023-03-27T21:38:49.992Z,94833.00
2023-03-27T21:39:50.058Z,94830.00
2023-03-27T21:40:50.111Z,94830.00
2023-03-27T21:41:50.159Z,94830.00
2023-03-27T21:42:50.190Z,94830.00
2023-03-27T21:43:50.229Z,94828.00
2023-03-27T21:44:53.896Z,94831.00
2023-03-27T21:45:51.324Z,94830.00
2023-03-27T21:46:50.296Z,94831.00
2023-03-27T21:47:50.263Z,94837.00
2023-03-27T21:48:50.273Z,94835.00
2023-03-27T21:49:50.252Z,94839.00
2023-03-27T21:50:50.222Z,94839.00
2023-03-27T21:51:50.237Z,94841.00
2023-03-27T21:52:50.222Z,94845.00
2023-03-27T21:53:50.203Z,94847.00
2023-03-27T21:55:02.409Z,94849.00
2023-03-27T21:55:51.184Z,94855.00
2023-03-27T21:56:50.234Z,94859.00
2023-03-27T21:57:50.185Z,94863.00
2023-03-27T21:58:50.190Z,94867.00
2023-03-27T21:59:50.208Z,94871.00
2023-03-27T22:00:50.167Z,94875.00
2023-03-27T22:01:50.215Z,94878.00
2023-03-27T22:02:50.179Z,94880.00
2023-03-27T22:03:50.192Z,94884.00
2023-03-27T22:04:50.262Z,94878.00
2023-03-27T22:06:01.006Z,94882.00
2023-03-27T22:06:51.271Z,94886.00
2023-03-27T22:07:50.253Z,94888.00
2023-03-27T22:08:50.272Z,94890.00
2023-03-27T22:09:50.250Z,94900.00
2023-03-27T22:10:50.245Z,94906.00
2023-03-27T22:11:50.243Z,94910.00
2023-03-27T22:12:50.241Z,94914.00
2023-03-27T22:13:50.221Z,94920.00
2023-03-27T22:14:50.200Z,94922.00
2023-03-27T22:15:50.296Z,94922.00
2023-03-27T22:16:50.333Z,94926.00
2023-03-27T22:17:50.303Z,94926.00
2023-03-27T22:18:50.337Z,94928.00
2023-03-27T22:19:50.384Z,94926.00
2023-03-27T22:20:50.424Z,94922.00
2023-03-27T22:21:50.472Z,94926.00
2023-03-27T22:22:50.519Z,94928.00
2023-03-27T22:23:50.579Z,94931.00
2023-03-27T22:24:50.583Z,94933.00
2023-03-27T22:25:50.634Z,94935.00
2023-03-27T22:26:50.698Z,94941.00
2023-03-27T22:27:50.739Z,94945.00
2023-03-27T22:28:50.767Z,94941.00
2023-03-27T22:29:50.812Z,94943.00
2023-03-27T22:30:50.892Z,94941.00
2023-03-27T22:31:50.922Z,94943.00
2023-03-27T22:32:50.998Z,94949.00
2023-03-27T22:33:51.016Z,94951.00
2023-03-27T22:34:51.046Z,94955.00
2023-03-27T22:35:51.130Z,94955.00
2023-03-27T22:36:51.149Z,94955.00
2023-03-27T22:37:51.183Z,94953.00
2023-03-27T22:38:51.312Z,94959.00
2023-03-27T22:39:51.269Z,94963.00
2023-03-27T22:40:51.333Z,94965.00
2023-03-27T22:41:51.380Z,94965.00
2023-03-27T22:42:51.410Z,94965.00
2023-03-27T22:43:51.469Z,94969.00
2023-03-27T22:44:51.520Z,94969.00
2023-03-27T22:45:51.598Z,94969.00
2023-03-27T22:46:51.665Z,94969.00
2023-03-27T22:47:51.740Z,94971.00
2023-03-27T22:48:51.725Z,94973.00
2023-03-27T22:49:51.804Z,94973.00
2023-03-27T22:50:51.844Z,94975.00
2023-03-27T22:51:51.909Z,94977.00
2023-03-27T22:52:51.948Z,94978.00
2023-03-27T22:53:52.013Z,94977.00
2023-03-27T22:54:52.070Z,94978.00
2023-03-27T22:55:52.140Z,94984.00
2023-03-27T22:56:52.263Z,94982.00
2023-03-27T22:57:52.226Z,94982.00
2023-03-27T22:58:52.278Z,94984.00
2023-03-27T22:59:52.320Z,94984.00
2023-03-27T23:00:52.396Z,94984.00
2023-03-27T23:01:52.609Z,94982.00
2023-03-27T23:02:52.571Z,94984.00
2023-03-27T23:03:52.675Z,94986.00
2023-03-27T23:04:52.574Z,94984.00
2023-03-27T23:05:52.635Z,94984.00
2023-03-27T23:06:52.685Z,94988.00
2023-03-27T23:07:52.750Z,94992.00
2023-03-27T23:08:52.788Z,94992.00
2023-03-27T23:09:52.827Z,94992.00
2023-03-27T23:10:52.881Z,94994.00
2023-03-27T23:11:52.940Z,94996.00
2023-03-27T23:12:52.986Z,94996.00
2023-03-27T23:13:53.039Z,94996.00
2023-03-27T23:14:53.083Z,94994.00
2023-03-27T23:15:53.155Z,94992.00
2023-03-27T23:16:53.231Z,94988.00
2023-03-27T23:17:53.271Z,94986.00
2023-03-27T23:18:53.312Z,94984.00
2023-03-27T23:19:53.335Z,94980.00
2023-03-27T23:20:53.407Z,94978.00
2023-03-27T23:21:53.468Z,94980.00
2023-03-27T23:22:53.500Z,94982.00
2023-03-27T23:23:53.636Z,94984.00
2023-03-27T23:24:53.619Z,94982.00
2023-03-27T23:25:53.666Z,94984.00
2023-03-27T23:26:53.695Z,94984.00
2023-03-27T23:27:53.766Z,94986.00
2023-03-27T23:28:53.810Z,94984.00
2023-03-27T23:29:53.860Z,94984.00
2023-03-27T23:30:53.927Z,94984.00
2023-03-27T23:31:54.006Z,94984.00
2023-03-27T23:32:54.071Z,94984.00
2023-03-27T23:33:54.076Z,94984.00
2023-03-27T23:34:54.131Z,94988.00
2023-03-27T23:35:54.254Z,94988.00
2023-03-27T23:36:54.250Z,94988.00
2023-03-27T23:37:54.302Z,94988.00
2023-03-27T23:38:54.353Z,94990.00
2023-03-27T23:39:54.394Z,94994.00
2023-03-27T23:40:54.469Z,94994.00
2023-03-27T23:41:54.520Z,94996.00
2023-03-27T23:42:54.565Z,94994.00
2023-03-27T23:43:54.615Z,94994.00
2023-03-27T23:44:54.652Z,94992.00
2023-03-27T23:45:54.857Z,94992.00
2023-03-27T23:46:54.786Z,94994.00
2023-03-27T23:47:54.849Z,94996.00
2023-03-27T23:48:54.892Z,94996.00
2023-03-27T23:49:54.948Z,94994.00
2023-03-27T23:50:54.995Z,94990.00
2023-03-27T23:51:55.040Z,94992.00
2023-03-27T23:52:55.091Z,94988.00
2023-03-27T23:53:55.143Z,94988.00
2023-03-27T23:54:55.191Z,94984.00
2023-03-27T23:55:55.239Z,94982.00
2023-03-27T23:56:55.291Z,94978.00
2023-03-27T23:57:55.340Z,94975.00
2023-03-27T23:58:55.407Z,94973.00
2023-03-27T23:59:55.475Z,94971.00
